Details From YBRM - Broome Intl
To YPPD - Port Hedland Intl
Flight Number -
Tags Generated
Created
Modified
Stats Distance 251 nm / 465 km
Max Altitude 0 ft / 0 m
Waypoints 3
Social Downloads 4
Likes 0
Share VATSIM

Download

Looking for another format? Having issues loading an existing format? Contact us
Advertisement - Login to hide

Notes

Generated

Route

YBRM PPDNM YPPD

ID Type Via Altitude (ft/m) Position (lat/lon) Dist (leg/tot) Name
O YBRM APT - 0 / 0 -17.94581 / 122.21626 - / 0 nm
PPDNM FIX - 0 / 0 -20.37076 / 118.61836 250 / 250 nm
O YPPD APT - 0 / 0 -20.37029 / 118.62929 0 / 251 nm

Altitude Profile

Advertisement - Login to hide

Weather


0- 5 10 15 20 25 30 35+ Temperature / °C

Clouds and Precipitation
Forecast for 2018-11-17 00:00 UTC. Updated 3 hours ago

Ground ~20,000 ft ~40,000 ft Winds

YBRM

Details ICAO YBRM (BME)
Name Broome Intl
Region Australia
Timezone Australia/Perth (UTC+8.0)
Stats Elevation 56 ft / 17 m (AMSL)
Location -17.948700° 122.227000°
Runways 1
Magnetic Variation 1.729° E

METAR

YBRM 170000Z AUTO 35003KT 9999 // NCD 31/24 Q1009

Decode

TAF

TAF YBRM 162300Z 1700/1724 31012KT CAVOK FM171200 32006KT 9999 BKN010

Decode

Departure Runways

ID Width Length Bearing (true/mag) Surface Threshold Overrun Markings Lighting
10 148 ft / 45 m 8,325 ft / 2,537 m 105.60° / 103.87° ASPHALT 292 ft / 89 m 52 ft / 16 m APP EDGE THRESHOLD
28 148 ft / 45 m 8,325 ft / 2,537 m 285.60° / 283.87° ASPHALT 666 ft / 203 m 0 ft / 0 m APP EDGE THRESHOLD

YPPD

Details ICAO YPPD (PHE)
Name Port Hedland Intl
Region Australia
Timezone Australia/Perth (UTC+8.0)
Stats Elevation 33 ft / 10 m (AMSL)
Location -20.378600° 118.629000°
Runways 2
Magnetic Variation 1.215° E

METAR

YPPD 170000Z AUTO 17008KT 9999 // NCD 36/11 Q1011

Decode

TAF

TAF YPPD 162300Z 1700/1724 15010KT CAVOK FM170400 32014KT CAVOK FM171200 27012KT CAVOK FM171600 22008KT CAVOK FM172100 16010KT CAVOK

Decode

Destination Runways

ID Width Length Bearing (true/mag) Surface Threshold Overrun Markings Lighting
14 148 ft / 45 m 8,216 ft / 2,504 m 137.60° / 136.39° ASPHALT 0 ft / 0 m 0 ft / 0 m APP EDGE THRESHOLD
18 59 ft / 18 m 3,292 ft / 1,003 m 2.40° / 1.18° ASPHALT 0 ft / 0 m 0 ft / 0 m VISUAL EDGE THRESHOLD
32 148 ft / 45 m 8,216 ft / 2,504 m 317.60° / 316.38° ASPHALT 0 ft / 0 m 0 ft / 0 m APP EDGE THRESHOLD
36 59 ft / 18 m 3,292 ft / 1,003 m 182.40° / 181.18° ASPHALT 0 ft / 0 m 0 ft / 0 m VISUAL EDGE THRESHOLD

Popular Alternatives